Terminal Aerodrome Forecast
Issued by NWS

Home | Current Version | Previous Version | Text Only | Print | Product List | Glossary On
Versions: 1 2 3 4 5 6 7 8 9 10 11 12 13 14
000
FTUS42 KTBW 232029 AAA
TAFPIE
TAF AMD
KPIE 232029Z 2320/2418 07010KT P6SM VCSH BKN050
      TEMPO 2321/2324 06015G20KT 5SM RA BR BKN035
     FM240000 07013G19KT P6SM SCT025 SCT050
     FM240700 08011KT P6SM FEW020 SCT250
     FM241400 08014G19KT P6SM FEW020 SCT250=

USA.gov is the U.S. government's official web portal to all federal, state and local government web resources and services.